sensor_id;sensor_type;location;lat;lon;timestamp;P1;durP1;ratioP1;P2;durP2;ratioP2
43861;SDS011;29510;52.140;5.034;2023-12-22T00:07:04;9.73;;;1.13;;
43861;SDS011;29510;52.140;5.034;2023-12-22T00:17:05;11.95;;;1.40;;
43861;SDS011;29510;52.140;5.034;2023-12-22T00:27:07;9.52;;;2.03;;
43861;SDS011;29510;52.140;5.034;2023-12-22T00:37:07;9.57;;;1.17;;
43861;SDS011;29510;52.140;5.034;2023-12-22T00:47:08;10.85;;;1.23;;
43861;SDS011;29510;52.140;5.034;2023-12-22T00:57:08;10.45;;;2.58;;
43861;SDS011;29510;52.140;5.034;2023-12-22T01:07:09;10.75;;;1.20;;
43861;SDS011;29510;52.140;5.034;2023-12-22T01:17:10;12.32;;;1.58;;
43861;SDS011;29510;52.140;5.034;2023-12-22T01:27:11;16.52;;;1.27;;
43861;SDS011;29510;52.140;5.034;2023-12-22T01:37:12;12.70;;;1.60;;
43861;SDS011;29510;52.140;5.034;2023-12-22T01:47:13;19.30;;;2.38;;
43861;SDS011;29510;52.140;5.034;2023-12-22T01:57:14;18.85;;;2.92;;
43861;SDS011;29510;52.140;5.034;2023-12-22T02:07:17;17.27;;;2.30;;
43861;SDS011;29510;52.140;5.034;2023-12-22T02:17:20;21.27;;;3.10;;
43861;SDS011;29510;52.140;5.034;2023-12-22T02:37:27;17.63;;;2.42;;
43861;SDS011;29510;52.140;5.034;2023-12-22T02:47:29;15.77;;;2.28;;
43861;SDS011;29510;52.140;5.034;2023-12-22T02:57:29;9.98;;;1.70;;
43861;SDS011;29510;52.140;5.034;2023-12-22T03:07:30;14.23;;;2.33;;
43861;SDS011;29510;52.140;5.034;2023-12-22T03:17:31;16.23;;;2.28;;
43861;SDS011;29510;52.140;5.034;2023-12-22T03:27:32;16.67;;;2.10;;
43861;SDS011;29510;52.140;5.034;2023-12-22T03:37:33;18.73;;;2.70;;
43861;SDS011;29510;52.140;5.034;2023-12-22T03:47:33;17.88;;;2.20;;
43861;SDS011;29510;52.140;5.034;2023-12-22T03:57:34;15.82;;;2.05;;
43861;SDS011;29510;52.140;5.034;2023-12-22T04:07:35;16.85;;;2.55;;
43861;SDS011;29510;52.140;5.034;2023-12-22T04:17:35;13.48;;;1.83;;
43861;SDS011;29510;52.140;5.034;2023-12-22T04:27:36;18.30;;;2.28;;
43861;SDS011;29510;52.140;5.034;2023-12-22T04:37:37;17.80;;;2.30;;
43861;SDS011;29510;52.140;5.034;2023-12-22T04:47:37;10.65;;;2.17;;
43861;SDS011;29510;52.140;5.034;2023-12-22T04:57:38;13.73;;;1.75;;
43861;SDS011;29510;52.140;5.034;2023-12-22T05:07:38;11.80;;;1.88;;
43861;SDS011;29510;52.140;5.034;2023-12-22T05:17:40;10.45;;;1.85;;
43861;SDS011;29510;52.140;5.034;2023-12-22T05:27:40;14.38;;;2.35;;
43861;SDS011;29510;52.140;5.034;2023-12-22T05:37:43;13.73;;;1.80;;
43861;SDS011;29510;52.140;5.034;2023-12-22T05:47:43;16.98;;;1.98;;
43861;SDS011;29510;52.140;5.034;2023-12-22T05:57:44;13.05;;;2.33;;
43861;SDS011;29510;52.140;5.034;2023-12-22T06:07:45;15.30;;;2.35;;
43861;SDS011;29510;52.140;5.034;2023-12-22T06:17:45;18.38;;;3.13;;
43861;SDS011;29510;52.140;5.034;2023-12-22T06:27:46;15.13;;;2.50;;
43861;SDS011;29510;52.140;5.034;2023-12-22T06:37:46;22.25;;;2.97;;
43861;SDS011;29510;52.140;5.034;2023-12-22T06:47:47;19.05;;;3.38;;
43861;SDS011;29510;52.140;5.034;2023-12-22T06:57:47;28.98;;;4.53;;
43861;SDS011;29510;52.140;5.034;2023-12-22T07:07:48;20.80;;;3.03;;
43861;SDS011;29510;52.140;5.034;2023-12-22T07:17:49;20.13;;;3.08;;
43861;SDS011;29510;52.140;5.034;2023-12-22T07:27:49;24.15;;;3.20;;
43861;SDS011;29510;52.140;5.034;2023-12-22T07:37:50;23.27;;;3.10;;
43861;SDS011;29510;52.140;5.034;2023-12-22T07:47:50;20.70;;;3.53;;
43861;SDS011;29510;52.140;5.034;2023-12-22T07:57:51;25.67;;;3.75;;
43861;SDS011;29510;52.140;5.034;2023-12-22T08:07:52;12.90;;;2.35;;
43861;SDS011;29510;52.140;5.034;2023-12-22T08:17:52;16.93;;;2.37;;
43861;SDS011;29510;52.140;5.034;2023-12-22T08:27:53;18.25;;;2.92;;
43861;SDS011;29510;52.140;5.034;2023-12-22T08:37:54;25.15;;;2.63;;
43861;SDS011;29510;52.140;5.034;2023-12-22T08:47:55;19.55;;;2.50;;
43861;SDS011;29510;52.140;5.034;2023-12-22T08:57:56;11.15;;;2.17;;
43861;SDS011;29510;52.140;5.034;2023-12-22T09:07:56;12.20;;;2.27;;
43861;SDS011;29510;52.140;5.034;2023-12-22T09:17:57;15.13;;;3.35;;
43861;SDS011;29510;52.140;5.034;2023-12-22T09:27:57;11.85;;;2.78;;
43861;SDS011;29510;52.140;5.034;2023-12-22T09:37:58;12.85;;;1.75;;
43861;SDS011;29510;52.140;5.034;2023-12-22T09:47:59;8.75;;;1.30;;
43861;SDS011;29510;52.140;5.034;2023-12-22T09:58:01;10.18;;;1.42;;
43861;SDS011;29510;52.140;5.034;2023-12-22T10:08:03;12.93;;;1.60;;
43861;SDS011;29510;52.140;5.034;2023-12-22T10:18:05;9.48;;;1.83;;
43861;SDS011;29510;52.140;5.034;2023-12-22T10:28:09;8.82;;;1.58;;
43861;SDS011;29510;52.140;5.034;2023-12-22T10:38:10;7.90;;;1.67;;
43861;SDS011;29510;52.140;5.034;2023-12-22T10:48:11;6.18;;;1.40;;
43861;SDS011;29510;52.140;5.034;2023-12-22T10:58:11;10.90;;;1.48;;
43861;SDS011;29510;52.140;5.034;2023-12-22T11:08:12;11.45;;;1.48;;
43861;SDS011;29510;52.140;5.034;2023-12-22T11:18:17;9.75;;;1.98;;
43861;SDS011;29510;52.140;5.034;2023-12-22T11:28:19;10.15;;;1.30;;
43861;SDS011;29510;52.140;5.034;2023-12-22T11:38:21;12.43;;;1.50;;
43861;SDS011;29510;52.140;5.034;2023-12-22T11:48:22;11.57;;;1.45;;
43861;SDS011;29510;52.140;5.034;2023-12-22T12:08:59;7.47;;;1.10;;
43861;SDS011;29510;52.140;5.034;2023-12-22T12:19:01;7.75;;;2.15;;
43861;SDS011;29510;52.140;5.034;2023-12-22T12:29:02;11.43;;;1.45;;
43861;SDS011;29510;52.140;5.034;2023-12-22T12:39:06;9.60;;;1.50;;
43861;SDS011;29510;52.140;5.034;2023-12-22T12:49:09;5.93;;;1.13;;
43861;SDS011;29510;52.140;5.034;2023-12-22T12:59:12;9.63;;;1.35;;
43861;SDS011;29510;52.140;5.034;2023-12-22T13:09:14;7.93;;;1.38;;
43861;SDS011;29510;52.140;5.034;2023-12-22T13:19:15;12.07;;;1.45;;
43861;SDS011;29510;52.140;5.034;2023-12-22T13:29:16;11.53;;;1.83;;
43861;SDS011;29510;52.140;5.034;2023-12-22T13:39:17;13.85;;;2.90;;
43861;SDS011;29510;52.140;5.034;2023-12-22T13:49:17;15.18;;;2.53;;
43861;SDS011;29510;52.140;5.034;2023-12-22T13:59:29;8.13;;;1.58;;
43861;SDS011;29510;52.140;5.034;2023-12-22T14:09:31;15.90;;;2.17;;
43861;SDS011;29510;52.140;5.034;2023-12-22T14:19:33;11.20;;;1.70;;
43861;SDS011;29510;52.140;5.034;2023-12-22T14:29:34;9.80;;;1.90;;
43861;SDS011;29510;52.140;5.034;2023-12-22T14:39:36;10.80;;;2.15;;
43861;SDS011;29510;52.140;5.034;2023-12-22T14:49:37;15.93;;;2.38;;
43861;SDS011;29510;52.140;5.034;2023-12-22T14:59:37;11.60;;;2.00;;
43861;SDS011;29510;52.140;5.034;2023-12-22T15:09:38;13.43;;;2.95;;
43861;SDS011;29510;52.140;5.034;2023-12-22T15:19:40;14.68;;;1.90;;
43861;SDS011;29510;52.140;5.034;2023-12-22T15:29:44;15.75;;;2.40;;
43861;SDS011;29510;52.140;5.034;2023-12-22T15:39:46;15.40;;;2.85;;
43861;SDS011;29510;52.140;5.034;2023-12-22T15:49:47;15.52;;;2.53;;
43861;SDS011;29510;52.140;5.034;2023-12-22T15:59:48;14.90;;;2.80;;
43861;SDS011;29510;52.140;5.034;2023-12-22T16:09:49;12.57;;;2.22;;
43861;SDS011;29510;52.140;5.034;2023-12-22T16:19:50;18.23;;;2.17;;
43861;SDS011;29510;52.140;5.034;2023-12-22T16:29:53;12.13;;;2.55;;
43861;SDS011;29510;52.140;5.034;2023-12-22T16:39:54;12.73;;;2.25;;
43861;SDS011;29510;52.140;5.034;2023-12-22T16:49:54;11.85;;;2.67;;
43861;SDS011;29510;52.140;5.034;2023-12-22T16:59:55;14.98;;;2.20;;
43861;SDS011;29510;52.140;5.034;2023-12-22T17:09:55;14.35;;;2.53;;
43861;SDS011;29510;52.140;5.034;2023-12-22T17:19:56;17.00;;;2.15;;
43861;SDS011;29510;52.140;5.034;2023-12-22T17:29:57;16.98;;;2.58;;
43861;SDS011;29510;52.140;5.034;2023-12-22T17:39:58;12.43;;;2.53;;
43861;SDS011;29510;52.140;5.034;2023-12-22T17:49:58;11.93;;;1.75;;
43861;SDS011;29510;52.140;5.034;2023-12-22T17:59:59;11.98;;;1.95;;
43861;SDS011;29510;52.140;5.034;2023-12-22T18:09:59;13.65;;;1.98;;
43861;SDS011;29510;52.140;5.034;2023-12-22T18:20:00;15.95;;;2.65;;
43861;SDS011;29510;52.140;5.034;2023-12-22T18:30:00;10.63;;;1.75;;
43861;SDS011;29510;52.140;5.034;2023-12-22T18:40:05;11.50;;;1.92;;
43861;SDS011;29510;52.140;5.034;2023-12-22T18:50:06;10.68;;;1.80;;
43861;SDS011;29510;52.140;5.034;2023-12-22T19:00:07;11.98;;;1.90;;
43861;SDS011;29510;52.140;5.034;2023-12-22T19:10:09;10.43;;;1.90;;
43861;SDS011;29510;52.140;5.034;2023-12-22T19:20:10;9.52;;;1.58;;
43861;SDS011;29510;52.140;5.034;2023-12-22T19:30:11;4.50;;;0.80;;
43861;SDS011;29510;52.140;5.034;2023-12-22T19:40:12;10.18;;;1.52;;
43861;SDS011;29510;52.140;5.034;2023-12-22T19:50:13;6.72;;;1.02;;
43861;SDS011;29510;52.140;5.034;2023-12-22T20:00:14;10.70;;;1.30;;
43861;SDS011;29510;52.140;5.034;2023-12-22T20:10:15;11.63;;;2.58;;
43861;SDS011;29510;52.140;5.034;2023-12-22T20:20:15;13.20;;;1.83;;
43861;SDS011;29510;52.140;5.034;2023-12-22T20:30:17;7.93;;;2.10;;
43861;SDS011;29510;52.140;5.034;2023-12-22T20:40:18;11.05;;;2.20;;
43861;SDS011;29510;52.140;5.034;2023-12-22T20:50:18;10.48;;;2.20;;
43861;SDS011;29510;52.140;5.034;2023-12-22T21:00:19;7.83;;;1.73;;
43861;SDS011;29510;52.140;5.034;2023-12-22T21:10:20;13.23;;;1.52;;
43861;SDS011;29510;52.140;5.034;2023-12-22T21:20:21;13.77;;;1.83;;
43861;SDS011;29510;52.140;5.034;2023-12-22T21:30:22;14.02;;;2.13;;
43861;SDS011;29510;52.140;5.034;2023-12-22T21:40:22;12.65;;;1.80;;
43861;SDS011;29510;52.140;5.034;2023-12-22T21:50:23;7.95;;;1.30;;
43861;SDS011;29510;52.140;5.034;2023-12-22T22:00:23;7.07;;;0.88;;
43861;SDS011;29510;52.140;5.034;2023-12-22T22:10:24;13.52;;;2.83;;
43861;SDS011;29510;52.140;5.034;2023-12-22T22:20:25;13.07;;;2.58;;
43861;SDS011;29510;52.140;5.034;2023-12-22T22:30:25;7.10;;;1.80;;
43861;SDS011;29510;52.140;5.034;2023-12-22T22:40:26;8.65;;;1.70;;
43861;SDS011;29510;52.140;5.034;2023-12-22T22:50:26;12.05;;;2.72;;
43861;SDS011;29510;52.140;5.034;2023-12-22T23:00:27;13.43;;;2.75;;
43861;SDS011;29510;52.140;5.034;2023-12-22T23:10:29;12.60;;;2.10;;
43861;SDS011;29510;52.140;5.034;2023-12-22T23:20:29;13.40;;;1.70;;
43861;SDS011;29510;52.140;5.034;2023-12-22T23:30:30;12.30;;;1.73;;
43861;SDS011;29510;52.140;5.034;2023-12-22T23:40:31;12.40;;;2.13;;
43861;SDS011;29510;52.140;5.034;2023-12-22T23:50:31;19.98;;;5.53;;
